Accueil
METAR-TAF:

METAR-TAF

Aéroports :

Akeno, Japon

latitude: 34-32N, longitude: 136-41E, altitude: 6 m

Observation

Le bulletin a été fait il y a 52 minutes, à 05:06 UTC
Vent 10 kt de sud/sud-ouest
Température 32°C
Humidité 67%
Pression 1009 hPa
Visibilité 10 km ou plus
Quelques nuages à une hauteur de 2000 ft
Quelques nuages à une hauteur de 2500 ft, Cumulonimbus.
Nuages épars à une hauteur de 3000 ft
Nuages fragmentés à une hauteur de 10000 ft
orage

METAR: RJOE 250506Z COR 20010KT 9999 TS FEW020 FEW025CB SCT030 BKN100 32/25 Q1009 RMK 1CU020 2CB025 3CU030 5AC100 A2979 FBL TS 15KM W MOV UNK

Heure: 14:58 (05:58 UTC)


TAF: absent

Observations et prévisions météorologiques de plus de 4000 aéroports (messages METAR et TAF).

Les stations disponibles sont représentées par des disques jaunes et rouges sur la carte.

Passer la souris dessus pour voir le nom de la station.

Cliquer dessus pour voir les observations et prévisions météorologiques.

Pour changer de carte: cliquez sur les boutons verts avec une croix noire pour zoomer, sur le bouton vert avec un tiret pour effectuer un zoom arrière, ou sur les flèches vertes pour les cartes adjacentes.


METAR-TAF: